Mountain Home A F B, Idaho
Current Conditions -  °F | °C
As of 9:58 AM on Friday 24 Oct 2014 (Local Time) from KMUO Reporting Station
Overcast Overcast  
Wind Chill: 53°   Ceiling: 11000
Heat Index: 53°   Visibility: 10mi
Dew Point: 53°   Wind: 2mph
Humidity: 100%   Direction: 110°ESE
Pressure: 30.11"   Gusts: NA
Location:  43.0093°N, 115.5883°W
Report Text: KMUO 241558Z AUTO 11002KT 10SM OVC110 12/12 A3011 RMK AO2 SLP191 T01190119
Loading
Personal Weather Stations






























Interactive Weather Map
Tropical Storm Tracking
New forecast layout! Learn more

10-Day Weather Forecast

Advertisements
Track Severe Weather on mobile